Time;durP1;ratioP1;P1;durP2;ratioP2;P2;SDS_P1;SDS_P2;PMS_P1;PMS_P2;Temp;Humidity;BMP_temperature;BMP_pressure;BME280_temperature;BME280_humidity;BME280_pressure;Samples;Min_cycle;Max_cycle;Signal;HPM_P1;HPM_P2
2022/03/11 00:02:38;;;;;;;3.92;2.67;;;;;;;-5.70;53.77;103210.31;5052193;28;20066;-63
2022/03/11 00:05:06;;;;;;;2.93;2.63;;;;;;;-5.69;54.18;103204.25;5053780;28;20033;-64
2022/03/11 00:07:32;;;;;;;3.90;2.92;;;;;;;-5.65;54.85;103205.97;5052607;28;20033;-64
2022/03/11 00:09:57;;;;;;;5.30;3.57;;;;;;;-5.65;54.78;103200.78;5053535;28;20036;-62
2022/03/11 00:12:24;;;;;;;7.90;3.13;;;;;;;-5.62;55.23;103205.97;5052481;28;20037;-64
2022/03/11 00:14:50;;;;;;;3.60;2.60;;;;;;;-5.66;55.73;103183.47;5052238;28;20036;-65
2022/03/11 00:17:15;;;;;;;6.83;3.77;;;;;;;-5.55;56.48;103186.06;5053521;28;20033;-62
2022/03/11 00:19:41;;;;;;;7.63;4.57;;;;;;;-5.57;56.90;103173.06;5053787;28;20467;-62
2022/03/11 00:22:06;;;;;;;10.30;4.13;;;;;;;-5.53;57.66;103167.00;5052026;28;20032;-62
2022/03/11 00:24:32;;;;;;;7.17;2.43;;;;;;;-5.59;57.59;103164.44;5053342;28;20068;-64
2022/03/11 00:26:57;;;;;;;4.77;3.20;;;;;;;-5.42;57.56;103182.59;5053246;28;20094;-62
2022/03/11 00:29:23;;;;;;;6.80;3.90;;;;;;;-5.38;57.58;103169.59;5053599;28;20118;-64
2022/03/11 00:31:49;;;;;;;5.47;4.07;;;;;;;-5.46;57.66;103150.59;5053718;28;20116;-64
2022/03/11 00:34:14;;;;;;;3.60;3.17;;;;;;;-5.28;58.43;103161.78;5053707;28;20083;-61
2022/03/11 00:36:43;;;;;;;3.90;3.13;;;;;;;-5.50;58.21;103128.06;5053440;28;20387;-63
2022/03/11 00:39:08;;;;;;;5.90;2.33;;;;;;;-5.32;58.47;103159.19;5052996;28;20198;-64
2022/03/11 00:41:34;;;;;;;5.20;2.77;;;;;;;-5.18;58.48;103173.91;5052744;28;20021;-60
2022/03/11 00:43:59;;;;;;;5.50;3.77;;;;;;;-5.15;59.03;103168.72;5052870;28;20024;-64
2022/03/11 00:46:24;;;;;;;3.13;2.77;;;;;;;-5.10;58.98;103172.16;5051690;28;20036;-65
2022/03/11 00:48:50;;;;;;;7.70;3.20;;;;;;;-5.23;58.91;103141.84;5052913;28;20040;-63
2022/03/11 00:51:16;;;;;;;6.87;2.83;;;;;;;-5.04;59.33;103164.34;5052602;28;20368;-63
2022/03/11 00:53:41;;;;;;;3.07;2.63;;;;;;;-5.06;59.20;103159.16;5052946;28;20112;-63
2022/03/11 00:56:07;;;;;;;6.50;3.13;;;;;;;-5.39;59.05;103084.78;5051775;28;20021;-64
2022/03/11 00:58:33;;;;;;;5.53;2.83;;;;;;;-4.91;58.79;103157.38;5053024;28;20041;-63
2022/03/11 01:00:58;;;;;;;5.10;2.50;;;;;;;-4.87;59.00;103148.69;5052965;28;20499;-63
2022/03/11 01:03:24;;;;;;;3.20;2.90;;;;;;;-4.77;59.14;103151.25;5052905;28;20049;-63
2022/03/11 01:05:50;;;;;;;4.23;2.83;;;;;;;-4.76;58.87;103144.31;5050880;28;20396;-64
2022/03/11 01:08:16;;;;;;;10.00;3.92;;;;;;;-4.72;58.63;103131.28;5053170;28;20091;-63
2022/03/11 01:10:41;;;;;;;5.57;2.33;;;;;;;-4.60;59.33;103130.38;5053208;28;20029;-64
2022/03/11 01:13:08;;;;;;;8.73;4.30;;;;;;;-4.61;59.57;103120.00;5050964;28;20106;-62
2022/03/11 01:15:33;;;;;;;5.68;3.42;;;;;;;-4.63;59.55;103122.56;5051663;28;20162;-65
2022/03/11 01:17:59;;;;;;;4.07;2.87;;;;;;;-4.63;59.99;103106.09;5051992;28;20507;-63
2022/03/11 01:20:24;;;;;;;3.50;2.90;;;;;;;-4.56;59.29;103115.63;5052360;28;20028;-61
2022/03/11 01:22:50;;;;;;;7.87;3.10;;;;;;;-4.56;60.08;103111.28;5050839;28;20079;-63
2022/03/11 01:25:16;;;;;;;5.77;2.50;;;;;;;-4.67;60.12;103090.53;5052081;28;20063;-64
2022/03/11 01:27:41;;;;;;;5.17;2.30;;;;;;;-4.61;60.84;103094.84;5051872;28;20048;-63
2022/03/11 01:30:09;;;;;;;5.47;2.93;;;;;;;-4.53;60.67;103094.78;5051779;28;20021;-64
2022/03/11 01:32:36;;;;;;;3.42;3.05;;;;;;;-4.51;61.10;103090.44;5052239;28;20032;-62
2022/03/11 01:35:02;;;;;;;4.97;3.10;;;;;;;-4.46;61.24;103101.69;5052103;28;20028;-65
2022/03/11 01:37:29;;;;;;;4.93;3.05;;;;;;;-4.48;60.84;103093.88;5052512;28;20530;-61
2022/03/11 01:39:54;;;;;;;38.77;4.70;;;;;;;-4.34;61.68;103101.59;5051851;28;20029;-61
2022/03/11 01:42:20;;;;;;;5.57;3.13;;;;;;;-4.31;61.14;103106.81;5051867;28;20029;-61
2022/03/11 01:44:45;;;;;;;4.43;2.90;;;;;;;-4.30;62.08;103100.72;5051743;28;20029;-64
2022/03/11 01:47:11;;;;;;;3.57;3.00;;;;;;;-4.25;61.60;103087.69;5051696;28;20037;-63
2022/03/11 01:49:36;;;;;;;6.00;2.97;;;;;;;-4.44;62.11;103059.19;5051845;28;20017;-64
2022/03/11 01:52:03;;;;;;;4.53;3.20;;;;;;;-4.28;61.95;103077.28;5052006;28;20113;-62
2022/03/11 01:54:28;;;;;;;5.38;3.55;;;;;;;-4.33;62.97;103072.13;5052027;28;20465;-62
2022/03/11 01:56:54;;;;;;;5.37;3.67;;;;;;;-4.20;62.82;103085.91;5051512;28;20021;-63
2022/03/11 01:59:20;;;;;;;6.90;3.30;;;;;;;-4.18;63.10;103084.16;5051557;28;20037;-62
2022/03/11 02:01:45;;;;;;;6.43;3.47;;;;;;;-4.54;63.31;103022.84;5052095;28;20562;-62
2022/03/11 02:04:11;;;;;;;7.77;2.83;;;;;;;-4.25;63.83;103065.13;5051644;28;20120;-63
2022/03/11 02:06:38;;;;;;;6.73;2.83;;;;;;;-4.47;63.94;103032.34;5051559;28;20388;-64
2022/03/11 02:09:04;;;;;;;5.90;4.28;;;;;;;-4.15;63.53;103074.56;5050371;28;20186;-61
2022/03/11 02:11:30;;;;;;;4.00;3.30;;;;;;;-4.24;64.10;103056.44;5051590;28;20115;-63
2022/03/11 02:14:00;;;;;;;5.03;2.80;;;;;;;-4.20;64.31;103052.06;5051491;28;20134;-63
2022/03/11 02:16:37;;;;;;;3.65;2.90;;;;;;;-4.11;63.99;103062.41;5051746;28;20033;-63
2022/03/11 02:19:04;;;;;;;4.55;2.97;;;;;;;-4.19;64.62;103041.66;5051520;28;20480;-64
2022/03/11 02:21:30;;;;;;;5.00;3.10;;;;;;;-4.65;64.81;102965.72;5051288;28;20486;-63
2022/03/11 02:24:00;;;;;;;4.80;2.97;;;;;;;-4.14;65.20;103058.09;5051842;28;20028;-65
2022/03/11 02:26:28;;;;;;;6.47;2.95;;;;;;;-4.14;65.53;103057.22;5051364;28;20393;-63
2022/03/11 02:28:55;;;;;;;3.72;3.42;;;;;;;-4.25;65.72;103033.91;5054295;28;20111;-61
2022/03/11 02:31:23;;;;;;;4.78;3.08;;;;;;;-4.17;65.25;103036.44;5055371;28;20029;-65
2022/03/11 02:33:49;;;;;;;3.08;2.78;;;;;;;-4.12;65.61;103038.13;5054091;28;20035;-63
2022/03/11 02:36:14;;;;;;;4.83;3.17;;;;;;;-4.09;65.48;103045.88;5055258;28;20104;-64
2022/03/11 02:38:40;;;;;;;3.57;3.23;;;;;;;-4.00;65.59;103050.19;5055231;28;20151;-64
2022/03/11 02:41:07;;;;;;;7.97;3.63;;;;;;;-4.09;65.90;103022.47;5055375;28;20025;-63
2022/03/11 02:43:33;;;;;;;5.72;3.65;;;;;;;-3.94;65.45;103033.63;5055112;28;20462;-63
2022/03/11 02:45:59;;;;;;;8.73;3.43;;;;;;;-3.98;65.74;103018.91;5055098;28;20061;-64
2022/03/11 02:48:25;;;;;;;5.47;3.67;;;;;;;-3.98;66.21;103018.91;5054708;28;20102;-63
2022/03/11 02:50:50;;;;;;;4.33;3.60;;;;;;;-3.98;66.40;103013.72;5053414;28;20036;-63
2022/03/11 02:53:16;;;;;;;12.17;4.27;;;;;;;-3.80;66.58;103026.53;5054676;28;20028;-62
2022/03/11 02:55:42;;;;;;;6.13;2.73;;;;;;;-3.88;66.20;103015.34;5054971;28;20029;-62
2022/03/11 02:58:08;;;;;;;5.87;3.67;;;;;;;-3.91;66.54;103008.44;5054885;28;20021;-63
2022/03/11 03:00:35;;;;;;;4.03;3.35;;;;;;;-3.85;67.01;103020.50;5054714;28;20052;-63
2022/03/11 03:03:00;;;;;;;7.03;3.90;;;;;;;-3.82;67.30;103029.16;5054630;28;20032;-64
2022/03/11 03:05:26;;;;;;;8.13;3.00;;;;;;;-3.77;66.73;103032.56;5054399;28;20094;-64
2022/03/11 03:07:52;;;;;;;5.17;3.87;;;;;;;-3.77;66.69;103022.16;5041763;28;20042;-63
2022/03/11 03:10:18;;;;;;;3.97;3.47;;;;;;;-3.80;67.50;102995.28;5038706;28;20094;-63
2022/03/11 03:12:43;;;;;;;4.90;3.50;;;;;;;-3.77;67.46;103001.31;5046518;28;20039;-62
2022/03/11 03:15:09;;;;;;;8.00;3.30;;;;;;;-3.78;67.60;102999.59;5054718;28;20029;-63
2022/03/11 03:17:36;;;;;;;6.80;4.07;;;;;;;-3.67;67.68;103012.53;5054498;28;20025;-63
2022/03/11 03:20:04;;;;;;;7.18;4.40;;;;;;;-3.65;67.67;103012.50;5053359;28;20029;-64
2022/03/11 03:22:29;;;;;;;5.47;3.05;;;;;;;-3.67;68.16;102996.91;5053274;28;20033;-61
2022/03/11 03:24:55;;;;;;;6.77;3.60;;;;;;;-3.66;68.14;103009.03;5054491;28;20314;-62
2022/03/11 03:27:20;;;;;;;3.40;3.10;;;;;;;-3.71;68.27;102987.41;5055418;28;20040;-63
2022/03/11 03:29:46;;;;;;;6.80;3.67;;;;;;;-3.64;68.29;102998.59;5053853;28;20029;-62
2022/03/11 03:32:12;;;;;;;10.00;4.10;;;;;;;-3.66;68.86;102996.03;5055048;28;20032;-64
2022/03/11 03:34:38;;;;;;;9.30;3.60;;;;;;;-3.70;68.83;102970.91;5055143;28;20028;-68
2022/03/11 03:37:08;;;;;;;10.95;3.70;;;;;;;-3.65;69.03;102971.69;5054250;28;20027;-64
2022/03/11 03:39:34;;;;;;;9.23;3.92;;;;;;;-3.59;68.47;102979.44;5052836;28;20063;-62
2022/03/11 03:42:00;;;;;;;4.78;3.70;;;;;;;-3.53;69.51;102981.09;5054539;28;20074;-65
2022/03/11 03:44:26;;;;;;;5.70;3.23;;;;;;;-3.58;69.55;102985.50;5054676;28;20037;-64
2022/03/11 03:46:51;;;;;;;4.43;3.53;;;;;;;-3.57;69.35;102976.81;5054041;28;20039;-64
2022/03/11 03:49:17;;;;;;;6.87;3.07;;;;;;;-3.58;69.27;102970.75;5052877;28;20060;-63
2022/03/11 03:51:44;;;;;;;8.33;4.23;;;;;;;-3.42;69.58;102986.19;5053839;28;20078;-64
2022/03/11 03:54:10;;;;;;;4.13;3.22;;;;;;;-3.50;69.77;102962.81;5052575;28;20380;-63
2022/03/11 03:56:40;;;;;;;7.88;3.92;;;;;;;-3.50;69.63;102961.06;5054515;28;20041;-61
2022/03/11 03:59:06;;;;;;;4.90;3.33;;;;;;;-3.50;70.26;102955.88;5054576;28;20057;-63
2022/03/11 04:01:33;;;;;;;3.83;3.47;;;;;;;-3.53;69.97;102947.25;5054483;28;20087;-66
2022/03/11 04:03:59;;;;;;;4.70;3.70;;;;;;;-3.47;70.08;102953.25;5052999;28;20025;-64
2022/03/11 04:06:25;;;;;;;4.87;3.47;;;;;;;-3.44;69.74;102953.22;5053074;28;20041;-63
2022/03/11 04:08:51;;;;;;;10.38;4.85;;;;;;;-3.40;70.37;102945.34;5053427;28;20703;-64
2022/03/11 04:11:17;;;;;;;3.63;3.33;;;;;;;-3.40;70.37;102934.94;5053409;28;20148;-65
2022/03/11 04:13:43;;;;;;;4.28;3.55;;;;;;;-3.33;70.40;102954.81;5035441;28;20021;-64
2022/03/11 04:16:08;;;;;;;8.53;4.10;;;;;;;-3.35;70.43;102936.59;5053693;28;20444;-68
2022/03/11 04:18:34;;;;;;;6.67;3.83;;;;;;;-3.31;70.11;102947.84;5053390;28;20125;-66
2022/03/11 04:21:00;;;;;;;8.90;3.13;;;;;;;-3.32;70.63;102930.47;5048180;28;20021;-69
2022/03/11 04:23:25;;;;;;;4.50;3.60;;;;;;;-3.24;70.87;102941.66;5050876;28;20033;-68
2022/03/11 04:25:51;;;;;;;7.70;4.30;;;;;;;-3.52;71.35;102897.72;5047700;28;20117;-73
2022/03/11 04:28:17;;;;;;;10.70;3.10;;;;;;;-3.32;71.05;102920.06;5041684;28;20040;-70
2022/03/11 04:30:42;;;;;;;6.50;3.73;;;;;;;-3.23;70.79;102935.56;5032339;28;20410;-69
2022/03/11 04:33:08;;;;;;;8.87;3.80;;;;;;;-3.24;71.03;102919.06;5037989;28;20061;-70
2022/03/11 04:35:33;;;;;;;8.70;3.50;;;;;;;-3.19;70.56;102926.81;5033046;28;20113;-68
2022/03/11 04:37:59;;;;;;;6.27;3.40;;;;;;;-3.13;70.64;102937.16;5037631;28;20160;-70
2022/03/11 04:40:25;;;;;;;7.43;4.20;;;;;;;-3.17;71.25;102930.28;5042072;28;20033;-70
2022/03/11 04:42:50;;;;;;;10.83;4.00;;;;;;;-3.17;70.94;102917.25;5040207;28;20068;-67
2022/03/11 04:45:16;;;;;;;4.67;3.83;;;;;;;-3.23;70.60;102901.66;5033571;28;20038;-70
2022/03/11 04:47:41;;;;;;;7.13;4.10;;;;;;;-3.19;70.74;102901.59;5036969;28;20394;-66
2022/03/11 04:50:07;;;;;;;5.93;3.50;;;;;;;-3.06;70.55;102920.53;5049156;28;20064;-64
2022/03/11 04:52:33;;;;;;;8.27;4.00;;;;;;;-3.03;70.77;102914.41;5049284;28;20380;-66
2022/03/11 04:54:59;;;;;;;11.93;5.20;;;;;;;-2.99;70.39;102914.34;5050183;28;20465;-66
2022/03/11 04:57:24;;;;;;;8.70;3.50;;;;;;;-3.01;70.23;102905.69;5051644;28;20078;-66
2022/03/11 04:59:50;;;;;;;9.30;3.37;;;;;;;-2.92;69.80;102915.09;5050598;28;20158;-64
2022/03/11 05:02:27;;;;;;;4.73;3.57;;;;;;;-3.01;69.64;102904.81;5051519;28;20082;-66
2022/03/11 05:04:54;;;;;;;4.32;3.70;;;;;;;-2.97;70.18;102902.16;5052011;28;20028;-65
2022/03/11 05:07:20;;;;;;;6.30;3.90;;;;;;;-2.94;69.79;102907.31;5052501;28;20044;-67
2022/03/11 05:09:46;;;;;;;5.53;3.57;;;;;;;-2.99;70.23;102892.63;5052439;28;20082;-65
2022/03/11 05:12:12;;;;;;;7.72;3.50;;;;;;;-2.94;70.44;102893.41;5052396;28;20526;-65
2022/03/11 05:14:38;;;;;;;10.00;3.83;;;;;;;-2.99;70.27;102877.84;5052166;28;20025;-64
2022/03/11 05:17:03;;;;;;;8.88;3.28;;;;;;;-2.90;69.94;102901.16;5050632;28;20056;-66
2022/03/11 05:19:30;;;;;;;5.43;3.90;;;;;;;-2.83;69.79;102901.94;5052260;28;20202;-66
2022/03/11 05:21:55;;;;;;;10.02;4.53;;;;;;;-2.83;69.42;102899.34;5050732;28;20055;-66
2022/03/11 05:24:21;;;;;;;7.33;3.93;;;;;;;-2.81;69.67;102882.78;5051901;28;20048;-66
2022/03/11 05:26:48;;;;;;;12.97;5.23;;;;;;;-3.52;69.66;102754.47;5050819;28;20542;-65
2022/03/11 05:29:15;;;;;;;10.85;4.18;;;;;;;-2.66;70.09;102896.44;5050201;28;20021;-66
2022/03/11 05:31:41;;;;;;;19.77;4.95;;;;;;;-2.94;69.03;102829.09;5048577;28;20162;-65
2022/03/11 05:34:07;;;;;;;10.00;4.40;;;;;;;-2.92;70.05;102826.47;5032109;28;20478;-65
2022/03/11 05:36:33;;;;;;;6.25;3.28;;;;;;;-2.57;69.54;102889.34;5031963;28;20083;-66
2022/03/11 05:38:58;;;;;;;11.30;4.38;;;;;;;-2.61;69.38;102861.56;5041318;28;20051;-66
2022/03/11 05:41:24;;;;;;;8.73;3.97;;;;;;;-2.50;69.29;102866.59;5051983;28;20405;-64
2022/03/11 05:43:49;;;;;;;25.30;6.50;;;;;;;-2.43;70.03;102870.81;5051609;28;20033;-66
2022/03/11 05:46:15;;;;;;;7.67;4.00;;;;;;;-2.56;69.93;102846.72;5033879;28;20045;-69
2022/03/11 05:48:40;;;;;;;11.00;4.23;;;;;;;-2.43;69.76;102868.19;5032251;28;20030;-67
2022/03/11 05:51:07;;;;;;;8.80;4.37;;;;;;;-2.39;69.88;102869.00;5031991;28;20437;-66
2022/03/11 05:53:32;;;;;;;8.90;4.80;;;;;;;-2.37;69.77;102870.69;5032028;28;20100;-67
2022/03/11 05:55:58;;;;;;;10.33;4.07;;;;;;;-2.62;69.51;102819.84;5032057;28;20086;-70
2022/03/11 05:58:23;;;;;;;14.60;5.97;;;;;;;-2.37;69.99;102868.09;5032004;28;20041;-71
2022/03/11 06:00:49;;;;;;;10.53;4.60;;;;;;;-2.34;70.83;102875.00;5031907;28;20040;-74
2022/03/11 06:03:16;;;;;;;8.07;4.07;;;;;;;-2.37;70.57;102875.06;5043535;28;20499;-71
2022/03/11 06:05:41;;;;;;;7.13;4.43;;;;;;;-2.38;70.35;102863.75;5032515;28;20059;-72
2022/03/11 06:08:07;;;;;;;5.67;3.83;;;;;;;-2.25;70.62;102888.75;5047709;28;20041;-72
2022/03/11 06:10:32;;;;;;;6.30;4.50;;;;;;;-2.31;69.97;102861.91;5057266;28;20448;-66
2022/03/11 06:12:58;;;;;;;14.23;5.97;;;;;;;-2.35;70.17;102861.09;5057380;28;20043;-69
2022/03/11 06:15:23;;;;;;;13.03;4.13;;;;;;;-2.27;71.08;102874.88;5047923;28;20086;-69
2022/03/11 06:17:49;;;;;;;11.43;4.30;;;;;;;-2.40;71.56;102852.47;5056875;28;20449;-75
2022/03/11 06:20:14;;;;;;;6.33;4.37;;;;;;;-2.16;71.09;102871.19;5070596;28;20076;-72
2022/03/11 06:22:47;;;;;;;8.53;4.13;;;;;;;-2.16;70.51;102871.19;5064663;28;20029;-70
2022/03/11 06:25:14;;;;;;;10.57;4.15;;;;;;;-2.20;71.38;102865.16;5059519;28;20033;-70
2022/03/11 06:27:39;;;;;;;6.28;4.28;;;;;;;-2.40;71.32;102810.72;5059690;28;20036;-71
2022/03/11 06:30:06;;;;;;;7.57;3.93;;;;;;;-2.15;71.36;102845.06;5056466;28;20472;-66
2022/03/11 06:32:31;;;;;;;11.15;4.25;;;;;;;-2.08;70.87;102854.47;5053152;28;20028;-68
2022/03/11 06:34:57;;;;;;;7.03;4.33;;;;;;;-2.04;71.15;102844.81;5052780;28;20486;-67
2022/03/11 06:37:23;;;;;;;10.63;3.80;;;;;;;-1.98;71.63;102853.41;5052889;28;20029;-68
2022/03/11 06:39:48;;;;;;;12.17;4.33;;;;;;;-2.06;71.79;102829.19;5048802;28;20037;-70
2022/03/11 06:42:14;;;;;;;9.77;4.33;;;;;;;-1.88;71.70;102854.06;5029753;28;20090;-71
2022/03/11 06:44:40;;;;;;;14.03;6.00;;;;;;;-1.83;71.35;102856.59;5052873;28;20048;-67
2022/03/11 06:47:05;;;;;;;33.87;6.13;;;;;;;-1.83;71.54;102864.44;5051998;28;20393;-72
2022/03/11 06:49:31;;;;;;;196.37;25.20;;;;;;;-1.96;71.37;102835.09;5045094;28;20068;-68
2022/03/11 06:51:56;;;;;;;204.87;23.07;;;;;;;-1.76;70.62;102840.75;5038554;28;20057;-72
2022/03/11 06:54:22;;;;;;;63.03;7.70;;;;;;;-1.67;71.45;102843.19;5030215;28;20053;-75
2022/03/11 06:56:47;;;;;;;49.97;6.87;;;;;;;-1.55;71.07;102855.09;5030102;28;20056;-68
2022/03/11 06:59:13;;;;;;;189.83;19.13;;;;;;;-1.62;70.99;102836.09;5031074;28;20106;-69
2022/03/11 07:01:38;;;;;;;30.33;5.40;;;;;;;-1.65;70.47;102828.34;5030984;28;20049;-72
2022/03/11 07:04:08;;;;;;;18.80;4.97;;;;;;;-1.49;70.77;102854.09;5031242;28;20044;-71
2022/03/11 07:06:34;;;;;;;11.57;5.20;;;;;;;-1.44;70.54;102847.91;5031188;28;20061;-70
2022/03/11 07:08:59;;;;;;;11.17;4.47;;;;;;;-1.34;70.47;102845.94;5031109;28;20033;-71
2022/03/11 07:11:25;;;;;;;13.33;4.67;;;;;;;-1.36;70.31;102842.50;5027358;28;20065;-70
2022/03/11 07:13:50;;;;;;;6.30;4.07;;;;;;;-1.25;70.65;102859.63;5032878;28;20029;-72
2022/03/11 07:16:16;;;;;;;10.50;4.20;;;;;;;-1.23;70.94;102856.97;5035065;28;20099;-71
2022/03/11 07:18:41;;;;;;;12.37;3.93;;;;;;;-1.24;70.82;102860.50;5034679;28;20493;-71
2022/03/11 07:21:07;;;;;;;12.23;4.63;;;;;;;-1.32;71.44;102854.59;5033367;28;20018;-71
2022/03/11 07:23:33;;;;;;;14.40;4.35;;;;;;;-1.59;71.56;102802.06;5034714;28;20029;-72
2022/03/11 07:25:58;;;;;;;14.13;4.47;;;;;;;-1.43;71.61;102838.31;5034732;28;20033;-69
2022/03/11 07:28:27;;;;;;;11.53;4.13;;;;;;;-1.35;72.07;102847.69;5036381;28;20112;-73
2022/03/11 07:30:52;;;;;;;13.70;4.90;;;;;;;-1.77;72.90;102797.22;5041060;28;20028;-74
2022/03/11 07:33:17;;;;;;;5.60;4.20;;;;;;;-1.40;73.14;102833.00;5040605;28;20025;-78
2022/03/11 07:35:43;;;;;;;7.63;4.23;;;;;;;-1.72;72.78;102774.50;5041494;28;20033;-74
2022/03/11 07:38:08;;;;;;;6.90;4.60;;;;;;;-1.33;73.32;102839.81;5038978;28;20072;-71
2022/03/11 07:40:34;;;;;;;8.27;4.10;;;;;;;-1.36;73.41;102817.22;5034103;28;20053;-69
2022/03/11 07:43:00;;;;;;;7.63;4.23;;;;;;;-1.26;73.68;102820.47;5052152;28;20032;-68
2022/03/11 07:45:26;;;;;;;7.47;4.03;;;;;;;-1.28;73.14;102806.56;5053804;28;20094;-68
2022/03/11 07:47:52;;;;;;;13.47;4.30;;;;;;;-1.27;73.45;102808.28;5053498;28;20029;-66
2022/03/11 07:50:17;;;;;;;11.37;4.93;;;;;;;-1.21;74.27;102822.97;5053400;28;20018;-69
2022/03/11 07:52:43;;;;;;;16.27;4.57;;;;;;;-1.30;74.25;102801.38;5053092;28;20051;-67
2022/03/11 07:55:09;;;;;;;8.40;3.93;;;;;;;-1.27;74.61;102808.28;5052286;28;20036;-69
2022/03/11 07:57:36;;;;;;;10.90;4.55;;;;;;;-1.25;75.64;102801.25;5053327;28;20037;-66
2022/03/11 08:00:08;;;;;;;7.15;4.40;;;;;;;-1.09;75.58;102823.53;5053691;28;20052;-68
2022/03/11 08:02:34;;;;;;;13.27;4.53;;;;;;;-1.19;75.75;102795.03;5051148;28;20017;-69
2022/03/11 08:05:00;;;;;;;15.23;5.20;;;;;;;-1.07;75.52;102806.06;5051713;28;20271;-68
2022/03/11 08:07:28;;;;;;;8.45;4.25;;;;;;;-1.12;75.93;102788.75;5051956;28;20041;-71
2022/03/11 08:09:54;;;;;;;14.38;4.25;;;;;;;-1.06;76.14;102788.59;5052979;28;20045;-68
2022/03/11 08:12:20;;;;;;;7.80;5.07;;;;;;;-0.92;76.44;102820.50;5053082;28;20157;-66
2022/03/11 08:14:46;;;;;;;14.23;4.53;;;;;;;-1.01;76.71;102805.91;5053271;28;20159;-68
2022/03/11 08:17:11;;;;;;;13.80;5.47;;;;;;;-0.90;76.44;102813.47;5049101;28;20468;-68
2022/03/11 08:19:37;;;;;;;8.73;4.43;;;;;;;-1.01;76.14;102789.34;5053053;28;20024;-68
2022/03/11 08:22:03;;;;;;;12.17;4.50;;;;;;;-0.94;76.60;102807.44;5052979;28;20036;-69
2022/03/11 08:24:29;;;;;;;8.90;5.57;;;;;;;-0.92;77.06;102810.03;5052584;28;20036;-65
2022/03/11 08:26:55;;;;;;;9.17;4.93;;;;;;;-0.93;76.80;102793.47;5052947;28;20116;-71
2022/03/11 08:29:20;;;;;;;12.88;5.22;;;;;;;-0.75;77.31;102812.22;5052987;28;20033;-71
2022/03/11 08:31:47;;;;;;;10.43;3.83;;;;;;;-0.64;76.84;102811.03;5051736;28;20040;-64
2022/03/11 08:34:13;;;;;;;10.47;4.50;;;;;;;-0.77;76.63;102787.84;5052887;28;20025;-69
2022/03/11 08:36:39;;;;;;;10.43;4.10;;;;;;;-0.75;77.13;102791.28;5052405;28;20260;-65
2022/03/11 08:39:06;;;;;;;13.07;5.03;;;;;;;-0.73;76.89;102792.97;5051378;28;20364;-66
2022/03/11 08:41:32;;;;;;;6.03;4.03;;;;;;;-0.60;77.09;102809.19;5053116;28;20032;-67
2022/03/11 08:43:59;;;;;;;13.93;4.90;;;;;;;-0.73;77.09;102779.88;5052809;28;20274;-69
2022/03/11 08:46:26;;;;;;;9.23;4.70;;;;;;;-0.64;76.61;102768.31;5052595;28;20287;-69
2022/03/11 08:48:52;;;;;;;8.20;6.33;;;;;;;-0.50;76.28;102787.13;5052721;28;20255;-70
2022/03/11 08:51:18;;;;;;;10.77;4.13;;;;;;;-0.53;76.39;102779.34;5051000;28;20263;-67
2022/03/11 08:53:44;;;;;;;13.23;4.73;;;;;;;-0.46;76.71;102791.38;5052604;28;20247;-70
2022/03/11 08:56:10;;;;;;;7.50;3.90;;;;;;;-0.41;76.39;102794.72;5051364;28;20606;-69
2022/03/11 08:58:35;;;;;;;6.30;4.00;;;;;;;-0.47;77.00;102787.03;5052809;28;20029;-67
2022/03/11 09:01:01;;;;;;;10.70;4.77;;;;;;;-0.37;76.94;102793.72;5052419;28;20061;-66
2022/03/11 09:03:26;;;;;;;7.93;4.30;;;;;;;-0.35;76.57;102781.44;5052199;28;20033;-70
2022/03/11 09:05:52;;;;;;;10.57;4.67;;;;;;;-0.46;76.58;102770.44;5052021;28;20049;-71
2022/03/11 09:08:21;;;;;;;7.97;3.53;;;;;;;-0.48;77.15;102774.84;5052258;28;20044;-74
2022/03/11 09:10:46;;;;;;;;;;;;;;;-0.45;77.19;102779.13;5051532;28;20385;-71
2022/03/11 09:13:12;;;;;;;12.13;4.93;;;;;;;-0.68;77.24;102741.38;5052318;28;19915;-71
2022/03/11 09:15:37;;;;;;;11.23;4.20;;;;;;;-0.53;77.55;102775.88;5052076;28;20085;-69
2022/03/11 09:18:03;;;;;;;8.00;3.63;;;;;;;-0.54;77.07;102763.69;5052157;28;20124;-79
2022/03/11 09:20:29;;;;;;;10.93;4.70;;;;;;;-0.50;76.87;102760.09;5053176;28;20445;-81
2022/03/11 09:22:54;;;;;;;15.93;4.47;;;;;;;-0.69;77.31;102721.34;5051017;28;20452;-74
2022/03/11 09:25:20;;;;;;;9.00;4.27;;;;;;;-0.41;77.46;102778.16;5050991;28;20472;-61
2022/03/11 09:27:46;;;;;;;7.47;5.43;;;;;;;-0.59;77.50;102734.16;5051472;28;20039;-63
2022/03/11 09:30:12;;;;;;;17.27;5.57;;;;;;;-0.41;77.44;102776.38;5049851;28;20051;-73
2022/03/11 09:32:38;;;;;;;7.50;4.00;;;;;;;-0.48;77.14;102761.75;5052786;28;20487;-78
2022/03/11 09:35:07;;;;;;;10.97;4.40;;;;;;;-0.52;77.19;102752.28;5052203;28;20549;-72
2022/03/11 09:37:33;;;;;;;8.93;4.18;;;;;;;-0.47;77.44;102753.00;5051483;28;20124;-72
2022/03/11 09:39:58;;;;;;;11.77;4.23;;;;;;;-0.42;77.75;102756.34;5052052;28;20101;-70
2022/03/11 09:42:24;;;;;;;11.00;3.87;;;;;;;-0.32;78.00;102768.25;5050429;28;20032;-72
2022/03/11 09:44:53;;;;;;;12.03;4.80;;;;;;;-0.32;77.88;102760.41;5052048;28;20451;-69
2022/03/11 09:47:19;;;;;;;16.35;5.53;;;;;;;-0.44;77.54;102739.81;5051494;28;20469;-73
2022/03/11 09:49:46;;;;;;;6.63;4.57;;;;;;;-0.57;77.98;102722.78;5053514;28;20029;-74
2022/03/11 09:52:13;;;;;;;7.93;4.38;;;;;;;-0.38;78.16;102744.88;5050094;28;20263;-72
2022/03/11 09:54:38;;;;;;;7.90;3.80;;;;;;;-0.45;77.73;102732.88;5051897;28;20021;-68
2022/03/11 09:57:04;;;;;;;8.33;3.70;;;;;;;-0.34;77.78;102743.88;5051630;28;20262;-70
2022/03/11 09:59:30;;;;;;;7.50;4.63;;;;;;;-0.41;77.61;102723.16;5051690;28;20079;-74
2022/03/11 10:01:57;;;;;;;9.00;4.47;;;;;;;-0.20;77.84;102755.75;5051544;28;20021;-74
2022/03/11 10:04:22;;;;;;;10.47;4.80;;;;;;;-0.15;77.61;102761.69;5051036;28;20045;-71
2022/03/11 10:06:52;;;;;;;9.03;4.47;;;;;;;-0.22;78.11;102750.53;5051292;28;20654;-70
2022/03/11 10:09:17;;;;;;;8.88;5.57;;;;;;;-0.16;78.60;102759.97;5051474;28;20358;-67
2022/03/11 10:11:43;;;;;;;11.37;5.20;;;;;;;-0.37;79.02;102737.88;5051673;28;20110;-77
2022/03/11 10:14:08;;;;;;;6.73;3.70;;;;;;;-0.08;78.43;102768.47;5050527;28;20028;-70
2022/03/11 10:16:35;;;;;;;6.13;4.20;;;;;;;-0.09;78.36;102767.59;5050291;28;20268;-69
2022/03/11 10:19:15;;;;;;;14.80;5.63;;;;;;;0.02;78.80;102764.69;5050883;28;20032;-69
2022/03/11 10:21:43;;;;;;;9.10;4.93;;;;;;;-0.01;79.29;102755.13;5048681;28;20267;-66
2022/03/11 10:24:14;;;;;;;10.63;5.30;;;;;;;0.01;79.30;102755.09;5051760;28;20259;-70
2022/03/11 10:26:42;;;;;;;11.60;5.50;;;;;;;0.05;79.86;102764.59;5049392;28;20279;-71
2022/03/11 10:29:19;;;;;;;10.93;5.70;;;;;;;0.03;80.08;102750.69;5051784;28;20278;-72
2022/03/11 10:31:48;;;;;;;16.07;6.50;;;;;;;0.04;80.19;102752.41;5051736;28;20033;-76
2022/03/11 10:34:21;;;;;;;11.30;4.85;;;;;;;0.06;80.67;102755.81;5051538;28;20263;-73
2022/03/11 10:36:50;;;;;;;12.53;5.93;;;;;;;0.06;80.44;102763.69;5051149;28;20543;-72
2022/03/11 10:39:21;;;;;;;11.35;5.20;;;;;;;-0.10;81.19;102744.06;5050671;28;20667;-70
2022/03/11 10:41:50;;;;;;;11.17;5.50;;;;;;;0.03;80.67;102763.78;5050618;28;20144;-71
2022/03/11 10:44:23;;;;;;;9.07;4.32;;;;;;;-0.01;80.89;102765.59;5050630;28;20259;-70
2022/03/11 10:46:49;;;;;;;18.00;7.97;;;;;;;-0.13;81.51;102744.16;5048563;28;20048;-70
2022/03/11 10:49:34;;;;;;;18.67;10.03;;;;;;;-0.17;81.87;102732.06;5053790;28;20412;-71
2022/03/11 10:52:01;;;;;;;15.43;9.03;;;;;;;-0.57;81.57;102648.63;5053568;28;20255;-64
2022/03/11 10:54:29;;;;;;;9.10;6.70;;;;;;;0.09;81.80;102760.97;5054427;28;20297;-67
2022/03/11 10:57:06;;;;;;;16.80;7.27;;;;;;;0.06;81.59;102749.72;5054190;28;20270;-68
2022/03/11 10:59:32;;;;;;;11.53;6.50;;;;;;;0.00;82.02;102740.28;5050996;28;20267;-70
2022/03/11 11:01:58;;;;;;;9.33;6.13;;;;;;;-0.05;81.82;102743.03;5054405;28;20259;-66
2022/03/11 11:04:26;;;;;;;15.37;6.67;;;;;;;-0.14;81.99;102726.75;5054373;28;20502;-68
2022/03/11 11:06:54;;;;;;;14.50;6.93;;;;;;;0.02;81.78;102755.97;5053418;28;20056;-72
2022/03/11 11:09:23;;;;;;;12.33;6.23;;;;;;;-0.03;81.61;102756.06;5054464;28;20392;-74
2022/03/11 11:11:51;;;;;;;13.10;6.53;;;;;;;0.08;81.68;102761.88;5052089;28;20298;-73
2022/03/11 11:14:17;;;;;;;18.93;7.33;;;;;;;0.01;81.67;102735.91;5036563;28;20264;-70
2022/03/11 11:16:45;;;;;;;13.57;6.90;;;;;;;0.00;81.71;102742.91;5054464;28;20334;-67
2022/03/11 11:19:16;;;;;;;12.43;5.97;;;;;;;-0.02;81.57;102742.94;5054352;28;20282;-72